createdAt,value
2022-10-17T00:01:43.292Z,99030.63
2022-10-17T00:04:10.367Z,99025.63
2022-10-17T00:06:37.235Z,99011.53
2022-10-17T00:09:04.363Z,99015.13
2022-10-17T00:11:30.963Z,99014.59
2022-10-17T00:13:57.708Z,99010.25
2022-10-17T00:16:26.831Z,99007.78
2022-10-17T00:18:53.866Z,98999.31
2022-10-17T00:21:21.386Z,99002.63
2022-10-17T00:23:48.056Z,99009.53
2022-10-17T00:26:15.846Z,99005.69
2022-10-17T00:28:43.097Z,99004.25
2022-10-17T00:31:09.854Z,98999.63
2022-10-17T00:33:37.017Z,99005.44
2022-10-17T00:36:18.103Z,99005.44
2022-10-17T00:38:47.640Z,99009.09
2022-10-17T00:41:17.983Z,99020.91
2022-10-17T00:43:53.751Z,99013.22
2022-10-17T00:46:21.748Z,99012.41
2022-10-17T00:48:51.042Z,99012.72
2022-10-17T00:51:22.985Z,99019.03
2022-10-17T00:53:52.102Z,99033.94
2022-10-17T00:56:20.929Z,99015.72
2022-10-17T00:58:48.560Z,99003.91
2022-10-17T01:01:16.005Z,98975.25
2022-10-17T01:03:43.003Z,98991.25
2022-10-17T01:06:10.740Z,99008.88
2022-10-17T01:08:37.557Z,98999.53
2022-10-17T01:11:30.248Z,99004.22
2022-10-17T01:14:10.286Z,99020.75
2022-10-17T01:16:52.176Z,99026.00
2022-10-17T01:19:51.679Z,99036.50
2022-10-17T01:22:31.251Z,99054.38
2022-10-17T01:25:19.790Z,99045.00
2022-10-17T01:28:26.571Z,99062.38
2022-10-17T01:30:59.396Z,99071.16
2022-10-17T01:33:37.921Z,99071.44
2022-10-17T01:36:23.349Z,99074.19
2022-10-17T01:38:57.426Z,99082.72
2022-10-17T01:41:32.865Z,99084.63
2022-10-17T01:44:02.201Z,99083.22
2022-10-17T01:46:33.784Z,99082.66
2022-10-17T01:49:01.847Z,99094.19
2022-10-17T01:51:34.408Z,99110.97
2022-10-17T01:54:11.068Z,99111.22
2022-10-17T01:56:40.515Z,99112.88
2022-10-17T01:59:17.659Z,99120.03
2022-10-17T02:01:46.591Z,99107.34
2022-10-17T02:04:13.394Z,99099.09
2022-10-17T02:06:40.046Z,99109.00
2022-10-17T02:09:20.430Z,99116.16
2022-10-17T02:12:42.591Z,99123.91
2022-10-17T02:15:14.980Z,99123.06
2022-10-17T02:17:41.504Z,99115.94
2022-10-17T02:20:31.828Z,99106.25
2022-10-17T02:23:13.756Z,99107.34
2022-10-17T02:25:59.753Z,99101.59
2022-10-17T02:28:54.725Z,99112.91
2022-10-17T02:31:31.845Z,99117.88
2022-10-17T02:34:05.153Z,99136.66
2022-10-17T02:36:45.327Z,99140.78
2022-10-17T02:39:13.606Z,99147.69
2022-10-17T02:41:42.435Z,99142.72
2022-10-17T02:44:10.544Z,99152.69
2022-10-17T02:46:40.598Z,99155.16
2022-10-17T02:49:21.440Z,99158.19
2022-10-17T02:51:56.988Z,99144.72
2022-10-17T02:54:34.488Z,99143.59
2022-10-17T02:57:07.987Z,99147.47
2022-10-17T02:59:36.784Z,99154.38
2022-10-17T03:02:05.461Z,99143.94
2022-10-17T03:04:32.449Z,99146.75
2022-10-17T03:06:59.136Z,99145.06
2022-10-17T03:09:27.834Z,99145.13
2022-10-17T03:11:54.610Z,99143.19
2022-10-17T03:14:21.259Z,99148.69
2022-10-17T03:16:47.884Z,99146.22
2022-10-17T03:19:14.496Z,99147.63
2022-10-17T03:21:41.224Z,99162.75
2022-10-17T03:24:07.847Z,99141.28
2022-10-17T03:26:34.720Z,99140.75
2022-10-17T03:29:01.518Z,99147.38
2022-10-17T03:31:28.219Z,99141.31
2022-10-17T03:33:54.932Z,99142.44
2022-10-17T03:36:21.623Z,99149.06
2022-10-17T03:38:48.854Z,99153.47
2022-10-17T03:41:15.632Z,99158.16
2022-10-17T03:43:42.332Z,99156.50
2022-10-17T03:46:10.112Z,99146.31
2022-10-17T03:48:36.884Z,99146.31
2022-10-17T03:51:08.018Z,99146.31
2022-10-17T03:53:35.932Z,99140.53
2022-10-17T03:56:14.459Z,99159.03
2022-10-17T03:58:41.758Z,99171.44
2022-10-17T04:01:10.785Z,99168.41
2022-10-17T04:03:37.807Z,99175.59
2022-10-17T04:06:05.260Z,99189.91
2022-10-17T04:08:31.871Z,99186.59
2022-10-17T04:11:03.983Z,99187.72
2022-10-17T04:13:31.042Z,99186.63
2022-10-17T04:16:03.932Z,99175.09
2022-10-17T04:18:30.783Z,99185.56
2022-10-17T04:20:57.649Z,99168.50
2022-10-17T04:23:26.529Z,99187.50
2022-10-17T04:25:57.306Z,99187.81
2022-10-17T04:28:25.012Z,99203.75
2022-10-17T04:31:03.487Z,99204.88
2022-10-17T04:33:31.141Z,99214.25
2022-10-17T04:36:02.906Z,99215.59
2022-10-17T04:38:31.207Z,99220.03
2022-10-17T04:41:04.706Z,99228.28
2022-10-17T04:43:34.324Z,99225.78
2022-10-17T04:46:03.261Z,99243.41
2022-10-17T04:48:30.562Z,99249.22
2022-10-17T04:51:03.139Z,99252.50
2022-10-17T04:53:32.842Z,99245.38
2022-10-17T04:56:00.829Z,99247.31
2022-10-17T04:58:30.452Z,99246.22
2022-10-17T05:00:58.124Z,99244.28
2022-10-17T05:03:25.867Z,99240.47
2022-10-17T05:05:52.551Z,99250.91
2022-10-17T05:08:20.228Z,99257.25
2022-10-17T05:10:46.873Z,99257.25
2022-10-17T05:13:13.650Z,99277.31
2022-10-17T05:15:40.539Z,99283.09
2022-10-17T05:18:07.453Z,99283.66
2022-10-17T05:20:34.323Z,99295.19
2022-10-17T05:23:02.069Z,99293.84
2022-10-17T05:25:28.687Z,99307.03
2022-10-17T05:27:55.537Z,99299.91
2022-10-17T05:30:22.230Z,99306.22
2022-10-17T05:32:52.559Z,99296.56
2022-10-17T05:35:19.167Z,99300.72
2022-10-17T05:37:45.817Z,99300.44
2022-10-17T05:40:12.630Z,99309.50
2022-10-17T05:42:40.923Z,99317.50
2022-10-17T05:45:08.104Z,99321.63
2022-10-17T05:47:34.719Z,99340.59
2022-10-17T05:50:04.041Z,99326.84
2022-10-17T05:52:31.054Z,99328.78
2022-10-17T05:54:57.963Z,99341.97
2022-10-17T05:57:27.892Z,99346.38
2022-10-17T05:59:54.537Z,99354.34
2022-10-17T06:02:21.820Z,99359.56
2022-10-17T06:04:49.367Z,99356.53
2022-10-17T06:07:16.532Z,99354.59
2022-10-17T06:09:43.772Z,99356.50
2022-10-17T06:12:10.460Z,99363.09
2022-10-17T06:14:37.237Z,99361.72
2022-10-17T06:17:05.127Z,99371.06
2022-10-17T06:19:31.738Z,99371.06
2022-10-17T06:21:58.451Z,99378.78
2022-10-17T06:24:25.122Z,99384.00
2022-10-17T06:26:51.769Z,99382.06
2022-10-17T06:29:18.439Z,99400.75
2022-10-17T06:31:45.035Z,99402.69
2022-10-17T06:34:11.732Z,99407.09
2022-10-17T06:36:38.306Z,99415.34
2022-10-17T06:39:05.283Z,99430.72
2022-10-17T06:41:31.958Z,99425.75
2022-10-17T06:43:58.636Z,99422.75
2022-10-17T06:46:29.919Z,99422.16
2022-10-17T06:48:56.564Z,99431.22
2022-10-17T06:51:23.295Z,99437.00
2022-10-17T06:53:50.024Z,99442.75
2022-10-17T06:56:16.691Z,99450.44
2022-10-17T06:58:46.479Z,99456.78
2022-10-17T07:01:13.924Z,99471.59
2022-10-17T07:03:41.398Z,99476.53
2022-10-17T07:06:08.310Z,99494.72
2022-10-17T07:08:45.573Z,99491.16
2022-10-17T07:11:15.727Z,99499.66
2022-10-17T07:13:42.792Z,99502.97
2022-10-17T07:16:10.276Z,99499.66
2022-10-17T07:18:36.920Z,99510.66
2022-10-17T07:21:04.079Z,99515.63
2022-10-17T07:23:31.088Z,99522.22
2022-10-17T07:26:02.402Z,99528.28
2022-10-17T07:28:29.988Z,99539.56
2022-10-17T07:30:56.652Z,99548.13
2022-10-17T07:33:23.515Z,99547.00
2022-10-17T07:35:53.292Z,99553.09
2022-10-17T07:38:20.026Z,99571.25
2022-10-17T07:40:46.896Z,99578.69
2022-10-17T07:43:13.497Z,99589.19
2022-10-17T07:45:41.893Z,99589.44
2022-10-17T07:48:08.653Z,99583.41
2022-10-17T07:50:36.226Z,99585.88
2022-10-17T07:53:03.606Z,99595.25
2022-10-17T07:55:40.018Z,99593.59
2022-10-17T07:58:08.942Z,99606.25
2022-10-17T08:00:38.523Z,99610.91
2022-10-17T08:03:06.421Z,99603.19
2022-10-17T08:05:34.342Z,99615.84
2022-10-17T08:08:01.119Z,99623.25
2022-10-17T08:10:29.735Z,99623.53
2022-10-17T08:12:57.809Z,99629.63
2022-10-17T08:15:29.391Z,99644.19
2022-10-17T08:17:59.040Z,99648.84
2022-10-17T08:20:26.015Z,99648.59
2022-10-17T08:22:56.570Z,99661.78
2022-10-17T08:25:23.687Z,99662.34
2022-10-17T08:27:51.400Z,99673.59
2022-10-17T08:30:18.496Z,99671.38
2022-10-17T08:32:45.135Z,99676.34
2022-10-17T08:35:11.979Z,99673.59
2022-10-17T08:37:38.668Z,99674.44
2022-10-17T08:40:05.965Z,99684.88
2022-10-17T08:43:05.696Z,99682.47
2022-10-17T08:45:47.153Z,99690.78
2022-10-17T08:48:18.395Z,99691.63
2022-10-17T08:50:57.047Z,99695.22
2022-10-17T08:53:35.429Z,99698.00
2022-10-17T08:56:43.992Z,99702.44
2022-10-17T08:59:17.076Z,99702.47
2022-10-17T09:01:55.968Z,99705.53
2022-10-17T09:04:38.607Z,99716.28
2022-10-17T09:07:22.387Z,99714.34
2022-10-17T09:10:33.986Z,99725.94
2022-10-17T09:13:18.498Z,99736.16
2022-10-17T09:16:04.275Z,99734.25
2022-10-17T09:18:35.890Z,99735.09
2022-10-17T09:21:19.064Z,99749.16
2022-10-17T09:23:59.527Z,99747.28
2022-10-17T09:26:39.369Z,99758.31
2022-10-17T09:29:20.237Z,99765.81
2022-10-17T09:32:15.099Z,99768.56
2022-10-17T09:34:41.800Z,99777.41
2022-10-17T09:37:14.577Z,99782.63
2022-10-17T09:39:42.183Z,99786.50
2022-10-17T09:42:14.538Z,99784.88
2022-10-17T09:45:19.610Z,99789.84
2022-10-17T09:48:04.488Z,99807.75
2022-10-17T09:50:36.800Z,99801.69
2022-10-17T09:53:26.848Z,99806.13
2022-10-17T09:55:58.999Z,99800.31
2022-10-17T09:58:43.983Z,99806.94
2022-10-17T10:01:26.134Z,99805.25
2022-10-17T10:04:46.746Z,99803.09
2022-10-17T10:07:22.034Z,99815.47
2022-10-17T10:09:52.033Z,99828.44
2022-10-17T10:12:52.253Z,99830.91
2022-10-17T10:15:41.321Z,99837.84
2022-10-17T10:18:37.841Z,99833.41
2022-10-17T10:21:08.147Z,99843.91
2022-10-17T10:23:40.627Z,99847.19
2022-10-17T10:26:25.985Z,99845.00
2022-10-17T10:29:18.800Z,99847.72
2022-10-17T10:31:46.485Z,99846.94
2022-10-17T10:34:31.505Z,99862.13
2022-10-17T10:37:03.002Z,99867.06
2022-10-17T10:39:49.941Z,99876.44
2022-10-17T10:42:33.085Z,99874.81
2022-10-17T10:45:29.271Z,99881.44
2022-10-17T10:48:16.503Z,99879.78
2022-10-17T10:51:04.411Z,99886.94
2022-10-17T10:53:51.686Z,99895.50
2022-10-17T10:56:22.195Z,99900.22
2022-10-17T10:59:20.381Z,99901.31
2022-10-17T11:02:10.008Z,99897.44
2022-10-17T11:04:44.894Z,99909.59
2022-10-17T11:07:34.978Z,99914.00
2022-10-17T11:10:30.577Z,99914.28
2022-10-17T11:13:11.703Z,99907.13
2022-10-17T11:15:57.763Z,99909.88
2022-10-17T11:18:34.262Z,99914.25
2022-10-17T11:21:06.181Z,99903.47
2022-10-17T11:24:08.372Z,99909.56
2022-10-17T11:26:43.580Z,99912.31
2022-10-17T11:29:13.434Z,99914.81
2022-10-17T11:31:47.423Z,99917.59
2022-10-17T11:34:24.910Z,99914.25
2022-10-17T11:36:56.489Z,99922.53
2022-10-17T11:39:31.261Z,99917.84
2022-10-17T11:42:14.425Z,99930.56
2022-10-17T11:44:43.010Z,99943.56
2022-10-17T11:47:24.310Z,99943.25
2022-10-17T11:49:58.480Z,99948.50
2022-10-17T11:52:44.394Z,99946.31
2022-10-17T11:55:20.403Z,99958.72
2022-10-17T11:58:14.785Z,99962.59
2022-10-17T12:00:50.521Z,99967.81
2022-10-17T12:03:32.371Z,99974.47
2022-10-17T12:06:17.067Z,99978.63
2022-10-17T12:09:05.918Z,99979.72
2022-10-17T12:12:11.084Z,100000.16
2022-10-17T12:14:42.105Z,99986.34
2022-10-17T12:17:40.849Z,100003.47
2022-10-17T12:20:25.462Z,100026.13
2022-10-17T12:22:54.695Z,100018.41
2022-10-17T12:25:39.162Z,100032.19
2022-10-17T12:28:13.967Z,100021.13
2022-10-17T12:31:34.205Z,100019.72
2022-10-17T12:34:03.160Z,100022.72
2022-10-17T12:36:30.033Z,100019.66
2022-10-17T12:38:56.599Z,100029.31
2022-10-17T12:41:38.540Z,100029.91
2022-10-17T12:44:14.696Z,100032.94
2022-10-17T12:47:10.009Z,100028.25
2022-10-17T12:49:41.001Z,100037.34
2022-10-17T12:52:29.536Z,100040.94
2022-10-17T12:55:12.029Z,100036.28
2022-10-17T12:58:08.191Z,100034.91
2022-10-17T13:01:05.302Z,100030.75
2022-10-17T13:03:42.136Z,100029.94
2022-10-17T13:06:27.083Z,100021.66
2022-10-17T13:09:04.041Z,100031.63
2022-10-17T13:11:34.901Z,100034.09
2022-10-17T13:14:04.836Z,100039.09
2022-10-17T13:16:54.124Z,100034.69
2022-10-17T13:19:26.048Z,100044.06
2022-10-17T13:22:05.966Z,100055.41
2022-10-17T13:24:39.156Z,100058.16
2022-10-17T13:27:22.577Z,100063.41
2022-10-17T13:29:49.720Z,100069.50
2022-10-17T13:32:17.069Z,100076.69
2022-10-17T13:34:43.737Z,100089.97
2022-10-17T13:37:15.128Z,100097.97
2022-10-17T13:39:55.237Z,100102.41
2022-10-17T13:42:29.612Z,100105.72
2022-10-17T13:44:59.010Z,100113.47
2022-10-17T13:47:34.102Z,100119.53
2022-10-17T13:50:01.083Z,100120.38
2022-10-17T13:52:30.419Z,100120.94
2022-10-17T13:55:11.757Z,100122.88
2022-10-17T13:57:40.069Z,100125.63
2022-10-17T14:00:11.495Z,100128.38
2022-10-17T14:02:41.167Z,100127.84
2022-10-17T14:05:23.638Z,100140.00
2022-10-17T14:08:21.907Z,100133.34
2022-10-17T14:10:47.790Z,100132.78
2022-10-17T14:13:27.359Z,100134.44
2022-10-17T14:15:56.786Z,100141.94
2022-10-17T14:18:36.146Z,100137.78
2022-10-17T14:21:40.498Z,100141.09
2022-10-17T14:24:11.708Z,100147.22
2022-10-17T14:26:47.946Z,100136.41
2022-10-17T14:29:25.231Z,100140.28
2022-10-17T14:32:00.347Z,100147.19
2022-10-17T14:34:33.640Z,100151.63
2022-10-17T14:37:01.045Z,100158.25
2022-10-17T14:39:29.071Z,100155.78
2022-10-17T14:41:57.915Z,100165.44
2022-10-17T14:44:30.807Z,100166.53
2022-10-17T14:47:30.140Z,100173.72
2022-10-17T14:49:51.981Z,100183.13
2022-10-17T14:52:19.163Z,100192.53
2022-10-17T14:54:50.802Z,100198.88
2022-10-17T14:57:22.866Z,100207.16
2022-10-17T14:59:54.720Z,100208.00
2022-10-17T15:02:26.781Z,100211.88
2022-10-17T15:04:53.838Z,100220.41
2022-10-17T15:07:21.328Z,100212.69
2022-10-17T15:09:49.391Z,100219.06
2022-10-17T15:12:19.283Z,100224.56
2022-10-17T15:14:48.430Z,100219.06
2022-10-17T15:17:20.791Z,100219.59
2022-10-17T15:19:48.713Z,100214.34
2022-10-17T15:22:16.320Z,100227.28
2022-10-17T15:24:43.276Z,100226.44
2022-10-17T15:27:21.942Z,100220.66
2022-10-17T15:29:49.264Z,100236.13
2022-10-17T15:32:16.184Z,100232.50
2022-10-17T15:34:43.241Z,100240.22
2022-10-17T15:37:22.655Z,100237.97
2022-10-17T15:39:53.603Z,100237.13
2022-10-17T15:42:28.941Z,100239.56
2022-10-17T15:44:56.357Z,100245.88
2022-10-17T15:47:28.310Z,100247.81
2022-10-17T15:49:55.651Z,100252.75
2022-10-17T15:52:23.226Z,100256.06
2022-10-17T15:54:50.234Z,100260.44
2022-10-17T15:57:21.604Z,100261.81
2022-10-17T15:59:53.163Z,100278.88
2022-10-17T16:02:22.623Z,100284.38
2022-10-17T16:04:50.317Z,100282.16
2022-10-17T16:07:22.162Z,100288.75
2022-10-17T16:09:49.258Z,100294.34
2022-10-17T16:12:26.810Z,100295.16
2022-10-17T16:14:53.498Z,100294.03
2022-10-17T16:17:20.126Z,100288.72
2022-10-17T16:19:46.852Z,100289.81
2022-10-17T16:22:36.971Z,100296.94
2022-10-17T16:25:10.409Z,100298.53
2022-10-17T16:27:38.328Z,100306.78
2022-10-17T16:30:07.683Z,100311.72
2022-10-17T16:32:34.382Z,100315.31
2022-10-17T16:35:01.616Z,100314.41
2022-10-17T16:37:28.234Z,100324.06
2022-10-17T16:39:54.899Z,100319.34
2022-10-17T16:42:21.519Z,100311.53
2022-10-17T16:44:49.503Z,100321.41
2022-10-17T16:47:17.572Z,100312.78
2022-10-17T16:49:45.438Z,100324.03
2022-10-17T16:52:12.612Z,100331.09
2022-10-17T16:54:39.268Z,100333.81
2022-10-17T16:57:06.052Z,100342.50
2022-10-17T16:59:32.706Z,100346.03
2022-10-17T17:02:01.656Z,100358.59
2022-10-17T17:04:28.560Z,100351.34
2022-10-17T17:06:55.299Z,100359.81
2022-10-17T17:09:22.101Z,100365.00
2022-10-17T17:11:48.815Z,100360.75
2022-10-17T17:14:15.483Z,100366.53
2022-10-17T17:16:43.406Z,100377.16
2022-10-17T17:19:13.777Z,100384.19
2022-10-17T17:21:40.672Z,100388.53
2022-10-17T17:24:08.637Z,100391.19
2022-10-17T17:26:36.392Z,100396.13
2022-10-17T17:29:03.584Z,100396.00
2022-10-17T17:31:32.737Z,100402.00
2022-10-17T17:34:00.391Z,100400.47
2022-10-17T17:36:31.953Z,100405.66
2022-10-17T17:39:01.043Z,100409.50
2022-10-17T17:41:28.591Z,100402.81
2022-10-17T17:43:56.015Z,100406.09
2022-10-17T17:46:24.745Z,100415.09
2022-10-17T17:48:52.868Z,100416.41
2022-10-17T17:51:26.912Z,100420.41
2022-10-17T17:53:57.309Z,100422.50
2022-10-17T17:56:29.483Z,100417.38
2022-10-17T17:58:59.491Z,100431.88
2022-10-17T18:01:29.019Z,100437.47
2022-10-17T18:03:58.977Z,100451.41
2022-10-17T18:06:27.037Z,100453.78
2022-10-17T18:08:57.856Z,100457.78
2022-10-17T18:11:25.882Z,100465.31
2022-10-17T18:14:00.290Z,100454.38
2022-10-17T18:16:29.994Z,100461.94
2022-10-17T18:19:04.163Z,100458.63
2022-10-17T18:21:34.392Z,100463.50
2022-10-17T18:24:01.425Z,100472.13
2022-10-17T18:26:29.064Z,100478.00
2022-10-17T18:28:56.675Z,100478.34
2022-10-17T18:31:28.313Z,100484.19
2022-10-17T18:33:57.199Z,100484.91
2022-10-17T18:36:26.053Z,100490.66
2022-10-17T18:38:54.486Z,100494.81
2022-10-17T18:41:23.254Z,100488.13
2022-10-17T18:43:51.862Z,100502.56
2022-10-17T18:46:21.730Z,100498.25
2022-10-17T18:48:49.787Z,100510.31
2022-10-17T18:51:21.821Z,100516.19
2022-10-17T18:53:51.872Z,100521.16
2022-10-17T18:56:19.504Z,100523.09
2022-10-17T18:58:46.798Z,100533.47
2022-10-17T19:01:18.198Z,100526.91
2022-10-17T19:03:47.164Z,100539.09
2022-10-17T19:06:16.347Z,100541.47
2022-10-17T19:08:44.904Z,100547.78
2022-10-17T19:11:11.738Z,100550.31
2022-10-17T19:13:38.958Z,100545.28
2022-10-17T19:16:10.468Z,100544.91
2022-10-17T19:18:37.374Z,100549.44
2022-10-17T19:21:06.570Z,100552.19
2022-10-17T19:23:36.136Z,100556.00
2022-10-17T19:26:06.921Z,100560.41
2022-10-17T19:28:34.713Z,100568.91
2022-10-17T19:31:01.522Z,100575.44
2022-10-17T19:36:05.211Z,100580.78
2022-10-17T19:38:32.015Z,100595.00
2022-10-17T19:43:29.809Z,100589.81
2022-10-17T19:45:58.694Z,100591.31
2022-10-17T19:48:26.189Z,100591.78
2022-10-17T19:50:53.905Z,100595.47
2022-10-17T19:53:23.556Z,100606.28
2022-10-17T19:55:51.388Z,100605.53
2022-10-17T19:58:18.185Z,100611.94
2022-10-17T20:00:54.724Z,100614.53
2022-10-17T20:03:22.189Z,100608.69
2022-10-17T20:05:49.098Z,100618.19
2022-10-17T20:08:16.803Z,100619.25
2022-10-17T20:10:43.793Z,100624.50
2022-10-17T20:13:11.382Z,100625.97
2022-10-17T20:15:38.968Z,100620.03
2022-10-17T20:18:06.639Z,100611.94
2022-10-17T20:20:39.908Z,100616.13
2022-10-17T20:23:07.076Z,100612.53
2022-10-17T20:25:34.555Z,100612.53
2022-10-17T20:28:01.172Z,100618.66
2022-10-17T20:30:28.219Z,100634.03
2022-10-17T20:32:55.425Z,100631.88
2022-10-17T20:35:22.766Z,100634.63
2022-10-17T20:37:49.476Z,100628.31
2022-10-17T20:40:34.098Z,100624.13
2022-10-17T20:43:01.258Z,100621.25
2022-10-17T20:45:43.636Z,100622.91
2022-10-17T20:48:16.007Z,100613.03
2022-10-17T20:50:44.146Z,100620.03
2022-10-17T20:53:35.543Z,100615.00
2022-10-17T20:56:08.309Z,100617.50
2022-10-17T20:58:35.647Z,100624.88
2022-10-17T21:01:10.155Z,100630.38
2022-10-17T21:03:40.965Z,100630.38
2022-10-17T21:06:11.580Z,100635.13
2022-10-17T21:08:38.224Z,100632.97
2022-10-17T21:11:13.883Z,100638.69
2022-10-17T21:13:41.952Z,100640.34
2022-10-17T21:16:12.552Z,100643.34
2022-10-17T21:18:40.360Z,100643.53
2022-10-17T21:21:22.122Z,100657.25
2022-10-17T21:23:50.118Z,100661.91
2022-10-17T21:26:18.851Z,100662.44
2022-10-17T21:28:47.168Z,100668.44
2022-10-17T21:31:13.867Z,100676.50
2022-10-17T21:33:41.937Z,100675.13
2022-10-17T21:36:09.285Z,100667.84
2022-10-17T21:38:40.399Z,100675.13
2022-10-17T21:41:08.463Z,100683.25
2022-10-17T21:43:35.664Z,100677.03
2022-10-17T21:46:06.255Z,100685.94
2022-10-17T21:48:33.517Z,100692.72
2022-10-17T21:51:02.557Z,100708.53
2022-10-17T21:53:29.751Z,100708.75
2022-10-17T21:56:02.997Z,100713.00
2022-10-17T21:58:30.279Z,100720.63
2022-10-17T22:01:15.670Z,100720.25
2022-10-17T22:03:46.757Z,100729.97
2022-10-17T22:06:38.571Z,100734.59
2022-10-17T22:09:09.079Z,100731.66
2022-10-17T22:11:35.955Z,100743.03
2022-10-17T22:14:05.967Z,100738.63
2022-10-17T22:16:33.317Z,100733.59
2022-10-17T22:19:05.017Z,100736.38
2022-10-17T22:21:34.440Z,100739.34
2022-10-17T22:24:03.569Z,100732.84
2022-10-17T22:26:31.801Z,100733.28
2022-10-17T22:28:58.806Z,100739.59
2022-10-17T22:31:26.062Z,100753.47
2022-10-17T22:33:53.004Z,100755.78
2022-10-17T22:36:19.649Z,100759.16
2022-10-17T22:38:46.419Z,100757.91
2022-10-17T22:41:13.047Z,100760.44
2022-10-17T22:43:40.034Z,100763.34
2022-10-17T22:46:07.514Z,100769.03
2022-10-17T22:48:34.611Z,100783.09
2022-10-17T22:51:01.852Z,100775.13
2022-10-17T22:53:29.883Z,100786.66
2022-10-17T22:55:59.147Z,100778.25
2022-10-17T22:58:27.276Z,100784.97
2022-10-17T23:00:54.940Z,100795.03
2022-10-17T23:03:23.295Z,100792.31
2022-10-17T23:05:50.268Z,100800.69
2022-10-17T23:08:20.695Z,100808.03
2022-10-17T23:10:48.310Z,100803.59
2022-10-17T23:13:16.011Z,100813.66
2022-10-17T23:15:43.455Z,100807.78
2022-10-17T23:18:10.244Z,100811.16
2022-10-17T23:20:37.938Z,100817.03
2022-10-17T23:23:05.393Z,100814.28
2022-10-17T23:25:34.563Z,100825.19
2022-10-17T23:28:02.271Z,100820.34
2022-10-17T23:30:29.330Z,100824.97
2022-10-17T23:32:55.959Z,100828.72
2022-10-17T23:35:23.328Z,100821.53
2022-10-17T23:37:50.188Z,100832.84
2022-10-17T23:40:16.936Z,100825.72
2022-10-17T23:42:43.739Z,100821.09
2022-10-17T23:45:11.676Z,100831.16
2022-10-17T23:47:38.570Z,100834.09
2022-10-17T23:50:05.851Z,100829.41
2022-10-17T23:52:32.605Z,100832.97
2022-10-17T23:54:59.269Z,100830.41
2022-10-17T23:57:25.903Z,100836.97
2022-10-17T23:59:52.725Z,100847.03
